Time;durP1;ratioP1;P1;durP2;ratioP2;P2;SDS_P1;SDS_P2;PMS_P1;PMS_P2;Temp;Humidity;BMP_temperature;BMP_pressure;BME280_temperature;BME280_humidity;BME280_pressure;Samples;Min_cycle;Max_cycle;Signal;HPM_P1;HPM_P2
2021/06/26 05:15:30;;;;;;;0.30;0.30;;;19.70;99.90;;;;;;5957788;23;20180;31
2021/06/26 05:17:58;;;;;;;0.30;0.30;;;19.70;99.90;;;;;;4870728;29;20323;-78
2021/06/26 05:20:26;;;;;;;0.40;0.40;;;19.70;99.90;;;;;;4884391;29;20208;-78
2021/06/26 05:22:54;;;;;;;0.30;0.30;;;19.80;99.90;;;;;;4882048;29;20311;-80
2021/06/26 05:25:25;;;;;;;0.30;0.30;;;;;;;;;;4884312;29;20208;-79
2021/06/26 05:27:53;;;;;;;0.30;0.30;;;19.80;99.90;;;;;;4901345;29;20367;-80
2021/06/26 05:30:21;;;;;;;0.30;0.30;;;19.80;99.90;;;;;;4916324;23;20203;-79
2021/06/26 05:32:50;;;;;;;0.30;0.30;;;19.80;99.90;;;;;;4904773;29;20705;-80
2021/06/26 05:35:18;;;;;;;0.30;0.30;;;19.70;99.90;;;;;;4901521;29;20215;-80
2021/06/26 05:37:46;;;;;;;0.30;0.30;;;19.60;99.90;;;;;;4901187;29;20208;-79
2021/06/26 05:40:15;;;;;;;0.30;0.30;;;19.50;99.90;;;;;;4901577;29;20208;-76
2021/06/26 05:42:43;;;;;;;0.30;0.30;;;19.60;99.90;;;;;;4901180;29;20223;-80
2021/06/26 05:45:11;;;;;;;0.30;0.30;;;19.60;99.90;;;;;;4901763;29;20235;-81
2021/06/26 05:47:38;;;;;;;0.30;0.30;;;19.60;99.90;;;;;;4904338;29;20259;-80
2021/06/26 05:50:09;;;;;;;0.30;0.30;;;19.60;99.90;;;;;;4905066;29;20211;-81
2021/06/26 05:52:45;;;;;;;0.30;0.30;;;19.60;99.90;;;;;;4900793;29;20208;-80
2021/06/26 05:55:14;;;;;;;0.30;0.30;;;19.70;99.90;;;;;;4900338;29;20210;-80
2021/06/26 05:57:42;;;;;;;0.40;0.40;;;19.80;99.90;;;;;;4901395;29;20211;-76
2021/06/26 06:00:11;;;;;;;0.30;0.30;;;19.80;99.90;;;;;;4901199;29;20254;-78
2021/06/26 06:02:39;;;;;;;0.30;0.30;;;19.80;99.90;;;;;;4900989;29;20580;-80
2021/06/26 06:05:09;;;;;;;0.30;0.30;;;19.90;99.90;;;;;;4901330;29;20207;-81
2021/06/26 06:07:37;;;;;;;0.30;0.30;;;19.90;99.90;;;;;;4898337;29;20291;-80
2021/06/26 06:10:07;;;;;;;0.30;0.30;;;19.90;99.90;;;;;;4901337;29;20263;-80
2021/06/26 06:12:36;;;;;;;0.30;0.30;;;20.00;99.90;;;;;;4902534;29;20212;-82
2021/06/26 06:15:06;;;;;;;0.30;0.30;;;20.00;99.90;;;;;;4902119;29;20210;-81
2021/06/26 06:17:34;;;;;;;0.30;0.30;;;20.10;99.90;;;;;;4899887;29;20266;-79
2021/06/26 06:20:04;;;;;;;0.30;0.30;;;20.00;99.90;;;;;;4893544;29;20208;-81
2021/06/26 06:22:35;;;;;;;0.30;0.30;;;20.20;99.90;;;;;;4893682;29;20204;-81
2021/06/26 06:25:06;;;;;;;0.30;0.30;;;20.30;99.90;;;;;;4893259;29;20207;-80
2021/06/26 06:27:36;;;;;;;0.30;0.30;;;20.40;99.90;;;;;;4898084;29;20661;-80
2021/06/26 06:30:05;;;;;;;0.30;0.30;;;20.60;99.90;;;;;;4889029;29;20232;-81
2021/06/26 06:32:33;;;;;;;0.30;0.30;;;20.70;99.90;;;;;;4884084;29;20745;-81
2021/06/26 06:35:01;;;;;;;0.30;0.30;;;20.80;99.90;;;;;;4883421;29;20219;-79
2021/06/26 06:37:29;;;;;;;0.30;0.30;;;20.90;99.90;;;;;;4883626;29;20673;-79
2021/06/26 06:39:58;;;;;;;0.30;0.30;;;20.90;99.90;;;;;;4879893;29;20212;-79
2021/06/26 06:42:26;;;;;;;0.30;0.30;;;20.90;99.90;;;;;;4880866;29;20235;-81
2021/06/26 06:44:54;;;;;;;0.30;0.30;;;21.00;99.90;;;;;;4881603;29;20376;-76
2021/06/26 06:47:22;;;;;;;0.30;0.30;;;21.10;99.90;;;;;;4880075;29;20730;-80
2021/06/26 06:49:50;;;;;;;0.30;0.30;;;21.20;99.90;;;;;;4881200;29;20635;-79
2021/06/26 06:52:18;;;;;;;0.30;0.30;;;21.20;99.90;;;;;;4880386;29;20254;-80
2021/06/26 06:54:45;;;;;;;0.30;0.30;;;21.20;99.90;;;;;;4879498;29;20232;-79
2021/06/26 06:57:14;;;;;;;0.30;0.30;;;21.20;99.90;;;;;;4880570;29;20208;-77
2021/06/26 06:59:42;;;;;;;0.30;0.30;;;21.30;99.90;;;;;;4880167;29;20233;-79
2021/06/26 07:02:10;;;;;;;0.30;0.30;;;21.40;99.90;;;;;;4881022;29;20228;-80
2021/06/26 07:04:38;;;;;;;0.20;0.20;;;21.50;99.90;;;;;;4880122;29;20267;-79
2021/06/26 07:07:06;;;;;;;0.30;0.30;;;21.50;99.90;;;;;;4879553;29;20241;-77
2021/06/26 07:09:34;;;;;;;0.30;0.30;;;21.70;99.90;;;;;;4879568;29;20940;-73
2021/06/26 07:12:02;;;;;;;0.30;0.30;;;21.80;99.90;;;;;;4878342;29;20316;-76
2021/06/26 07:14:31;;;;;;;0.30;0.30;;;21.70;99.90;;;;;;4885198;29;20200;-77
2021/06/26 07:16:59;;;;;;;0.30;0.30;;;21.70;99.90;;;;;;4889056;29;20234;-77
2021/06/26 07:19:27;;;;;;;0.20;0.20;;;21.70;99.90;;;;;;4886771;29;20238;-76
2021/06/26 07:21:55;;;;;;;0.30;0.30;;;21.70;99.90;;;;;;4883320;29;20639;-78
2021/06/26 07:24:23;;;;;;;0.30;0.30;;;21.90;99.90;;;;;;4882642;29;20224;-79
2021/06/26 07:26:51;;;;;;;0.20;0.20;;;22.00;99.90;;;;;;4883431;29;20240;-78
2021/06/26 07:29:20;;;;;;;0.30;0.30;;;22.10;99.90;;;;;;4883905;29;20211;-78
2021/06/26 07:31:49;;;;;;;0.20;0.20;;;22.20;99.90;;;;;;4887480;29;20236;-80
2021/06/26 07:34:17;;;;;;;0.30;0.30;;;22.20;99.90;;;;;;4884982;29;20199;-78
2021/06/26 07:36:45;;;;;;;0.30;0.30;;;22.40;99.90;;;;;;4890820;29;20228;-79
2021/06/26 07:39:13;;;;;;;0.30;0.30;;;22.30;99.90;;;;;;4881320;29;20204;-77
2021/06/26 07:41:41;;;;;;;0.30;0.30;;;22.40;99.90;;;;;;4881465;29;20256;-77
2021/06/26 07:44:09;;;;;;;0.30;0.30;;;22.40;99.90;;;;;;4887331;29;20241;-77
2021/06/26 07:46:37;;;;;;;0.30;0.30;;;22.40;99.90;;;;;;4898606;29;20259;-76
2021/06/26 07:49:08;;;;;;;0.30;0.30;;;22.50;99.90;;;;;;4889855;29;20211;-75
2021/06/26 07:51:36;;;;;;;0.30;0.30;;;22.40;99.90;;;;;;4892837;29;20789;-76
2021/06/26 07:54:05;;;;;;;0.25;0.25;;;22.30;99.90;;;;;;4885879;29;20196;-77
2021/06/26 07:56:34;;;;;;;0.30;0.30;;;22.20;99.90;;;;;;4883414;29;20223;-76
2021/06/26 07:59:02;;;;;;;0.20;0.20;;;22.30;99.90;;;;;;4888019;29;20264;-77
2021/06/26 08:01:30;;;;;;;0.28;0.28;;;22.60;99.90;;;;;;4904745;29;20231;-76
2021/06/26 08:03:58;;;;;;;0.20;0.20;;;22.70;99.90;;;;;;4907830;29;20223;-76
2021/06/26 08:06:27;;;;;;;0.20;0.20;;;22.90;99.90;;;;;;4909224;29;20203;-74
2021/06/26 08:08:55;;;;;;;0.20;0.20;;;23.00;99.90;;;;;;4902134;29;20239;-78
2021/06/26 08:11:23;;;;;;;0.20;0.20;;;;;;;;;;4901759;29;20632;-78
2021/06/26 08:13:52;;;;;;;0.20;0.20;;;23.40;99.90;;;;;;4900504;29;20238;-77
2021/06/26 08:16:20;;;;;;;0.20;0.20;;;23.50;99.90;;;;;;4899068;29;20652;-76
2021/06/26 08:18:48;;;;;;;0.30;0.30;;;23.60;99.90;;;;;;4899073;29;20215;-76
2021/06/26 08:21:18;;;;;;;0.30;0.30;;;23.50;99.90;;;;;;4895354;29;20306;-76
2021/06/26 08:23:48;;;;;;;0.30;0.30;;;23.50;99.90;;;;;;4899811;29;20218;-76
2021/06/26 08:26:17;;;;;;;0.20;0.20;;;23.50;99.90;;;;;;4898307;29;20215;-77
2021/06/26 08:28:45;;;;;;;0.20;0.20;;;23.40;99.90;;;;;;4907645;29;20298;-76
2021/06/26 08:31:13;;;;;;;0.22;0.22;;;23.50;99.90;;;;;;4902611;29;20262;-75
2021/06/26 08:33:41;;;;;;;0.20;0.20;;;23.60;99.90;;;;;;4897873;29;20275;-77
2021/06/26 08:36:09;;;;;;;0.20;0.20;;;23.70;99.90;;;;;;4898028;29;20570;-77
2021/06/26 08:38:39;;;;;;;0.20;0.20;;;23.80;99.90;;;;;;4898009;29;20211;-77
2021/06/26 08:41:09;;;;;;;0.20;0.20;;;23.60;99.90;;;;;;4917323;29;20589;-76
2021/06/26 08:43:37;;;;;;;0.30;0.30;;;23.60;99.90;;;;;;4917642;29;20589;-77
2021/06/26 08:46:04;;;;;;;0.30;0.30;;;23.40;99.90;;;;;;4917144;29;20784;-76
2021/06/26 08:48:34;;;;;;;0.20;0.20;;;23.40;99.90;;;;;;4913452;29;20207;-76
2021/06/26 08:51:02;;;;;;;0.20;0.20;;;23.30;99.90;;;;;;4902996;29;20705;-76
2021/06/26 08:53:30;;;;;;;0.20;0.20;;;23.30;99.90;;;;;;4895686;29;20207;-77
2021/06/26 08:55:58;;;;;;;0.20;0.20;;;23.40;99.90;;;;;;4898470;29;20623;-77
2021/06/26 08:58:27;;;;;;;0.20;0.20;;;23.60;99.90;;;;;;4898302;29;20211;-77
2021/06/26 09:00:55;;;;;;;0.20;0.20;;;23.70;99.90;;;;;;4898374;29;20283;-77
2021/06/26 09:03:24;;;;;;;0.20;0.20;;;24.00;99.90;;;;;;4916668;29;20631;-77
2021/06/26 09:05:52;;;;;;;0.20;0.20;;;24.30;99.90;;;;;;4916919;29;20285;-76
2021/06/26 09:08:21;;;;;;;0.20;0.20;;;24.50;99.90;;;;;;4917034;29;20254;-76
2021/06/26 09:10:51;;;;;;;0.20;0.20;;;24.60;99.90;;;;;;4917056;29;20226;-75
2021/06/26 09:13:23;;;;;;;0.20;0.20;;;24.70;98.90;;;;;;4916549;29;20219;-76
2021/06/26 09:16:04;;;;;;;0.20;0.20;;;24.60;98.40;;;;;;4916767;29;20219;-76
2021/06/26 09:18:41;;;;;;;0.20;0.20;;;24.40;96.60;;;;;;4917073;29;20249;-76
2021/06/26 09:21:21;;;;;;;0.20;0.20;;;24.20;96.90;;;;;;4916988;29;20265;-77
2021/06/26 09:23:59;;;;;;;0.20;0.20;;;24.10;96.40;;;;;;4916761;29;20214;-76
2021/06/26 09:26:28;;;;;;;0.20;0.20;;;24.10;97.00;;;;;;4916671;29;20258;-76
2021/06/26 09:28:56;;;;;;;0.20;0.20;;;24.20;96.80;;;;;;4916656;29;20629;-75
2021/06/26 09:31:25;;;;;;;0.20;0.20;;;24.40;96.90;;;;;;4916605;29;20230;-75
2021/06/26 09:33:58;;;;;;;0.20;0.20;;;24.60;96.00;;;;;;4916444;29;20210;-77
2021/06/26 09:36:30;;;;;;;0.20;0.20;;;24.80;95.40;;;;;;4916671;29;20668;-76
2021/06/26 09:39:00;;;;;;;0.20;0.20;;;25.00;95.10;;;;;;4917171;29;20545;-75
2021/06/26 09:41:29;;;;;;;0.20;0.20;;;25.00;95.20;;;;;;4917114;29;20278;-75
2021/06/26 09:44:08;;;;;;;0.20;0.20;;;24.60;99.90;;;;;;4921009;29;20211;-76
2021/06/26 09:46:46;;;;;;;0.20;0.20;;;24.80;95.80;;;;;;4915825;29;20234;-75
2021/06/26 09:49:15;;;;;;;0.20;0.20;;;24.60;96.80;;;;;;4920402;29;20241;-74
2021/06/26 09:51:43;;;;;;;0.20;0.20;;;24.50;98.10;;;;;;4924511;29;20227;-76
2021/06/26 09:54:11;;;;;;;0.20;0.20;;;24.50;97.00;;;;;;4916282;29;20266;-76
2021/06/26 09:56:41;;;;;;;0.20;0.20;;;24.50;97.20;;;;;;4915946;29;20262;-74
2021/06/26 09:59:09;;;;;;;0.20;0.20;;;24.50;96.90;;;;;;4903146;29;20570;-75
2021/06/26 10:01:41;;;;;;;0.20;0.20;;;24.70;97.40;;;;;;4897447;29;20709;-75
2021/06/26 10:04:12;;;;;;;0.20;0.20;;;24.80;96.40;;;;;;4897280;29;20584;-75
2021/06/26 10:06:41;;;;;;;0.20;0.20;;;24.80;96.50;;;;;;4897728;29;20231;-74
2021/06/26 10:09:09;;;;;;;0.20;0.20;;;24.80;96.40;;;;;;4912837;29;20723;-76
2021/06/26 10:11:39;;;;;;;0.20;0.20;;;24.80;96.50;;;;;;4917877;29;20764;-75
2021/06/26 10:14:09;;;;;;;0.20;0.20;;;24.80;96.90;;;;;;4918649;29;20217;-75
2021/06/26 10:16:38;;;;;;;0.20;0.20;;;24.80;96.60;;;;;;4924882;29;20266;-76
2021/06/26 10:19:08;;;;;;;0.20;0.20;;;24.80;96.60;;;;;;4918297;29;20226;-75
2021/06/26 10:21:38;;;;;;;0.20;0.20;;;24.70;96.90;;;;;;4916312;29;20274;-75
2021/06/26 10:24:11;;;;;;;0.20;0.20;;;24.80;97.30;;;;;;4915804;29;20642;-74
2021/06/26 10:26:42;;;;;;;0.20;0.20;;;24.80;97.10;;;;;;4915531;29;20230;-71
2021/06/26 10:29:13;;;;;;;0.20;0.20;;;24.70;96.80;;;;;;4883646;29;21396;-75
2021/06/26 10:31:42;;;;;;;0.20;0.20;;;24.50;98.20;;;;;;4915926;29;20245;-76
2021/06/26 10:34:13;;;;;;;0.20;0.20;;;24.50;98.00;;;;;;4897271;29;20322;-72
2021/06/26 10:36:46;;;;;;;0.20;0.20;;;24.50;97.40;;;;;;4887476;29;20260;-72
2021/06/26 10:39:23;;;;;;;0.20;0.20;;;24.40;98.70;;;;;;4891695;29;20208;-76
2021/06/26 10:42:12;;;;;;;0.20;0.20;;;24.20;99.30;;;;;;4890155;29;20282;-74
2021/06/26 10:44:43;;;;;;;0.20;0.20;;;24.20;99.90;;;;;;4887158;29;20291;-73
2021/06/26 10:47:11;;;;;;;0.20;0.20;;;24.10;99.90;;;;;;4890742;29;20279;-74
2021/06/26 10:49:41;;;;;;;0.20;0.20;;;23.80;99.10;;;;;;4886985;29;20286;-74
2021/06/26 10:52:14;;;;;;;0.20;0.20;;;23.70;99.20;;;;;;4889408;29;20304;-72
2021/06/26 10:54:53;;;;;;;0.20;0.20;;;23.70;99.90;;;;;;4887354;29;20211;-72
2021/06/26 10:57:22;;;;;;;0.20;0.20;;;23.80;99.90;;;;;;4889326;29;20208;-74
2021/06/26 11:00:00;;;;;;;0.20;0.20;;;23.90;99.90;;;;;;4894872;29;20226;-74
2021/06/26 11:02:42;;;;;;;0.20;0.20;;;24.00;99.90;;;;;;4892494;29;20273;-74
2021/06/26 11:05:11;;;;;;;0.20;0.20;;;23.90;98.70;;;;;;4884527;29;20200;-73
2021/06/26 11:07:41;;;;;;;0.20;0.20;;;23.80;99.30;;;;;;4890762;29;20278;-76
2021/06/26 11:10:11;;;;;;;0.20;0.20;;;23.90;99.90;;;;;;4891259;29;20580;-76
2021/06/26 11:12:41;;;;;;;0.20;0.20;;;24.20;98.70;;;;;;4891374;29;20204;-74
2021/06/26 11:15:10;;;;;;;0.20;0.20;;;24.40;98.90;;;;;;4893898;29;20661;-72
2021/06/26 11:17:39;;;;;;;0.20;0.20;;;24.40;98.70;;;;;;4885500;29;20212;-73
2021/06/26 11:20:09;;;;;;;0.20;0.20;;;24.00;99.90;;;;;;4892297;29;20208;-72
2021/06/26 11:22:38;;;;;;;0.20;0.20;;;24.00;99.60;;;;;;4890639;29;20268;-70
2021/06/26 11:25:11;;;;;;;0.20;0.20;;;23.90;99.90;;;;;;4899984;29;20204;-72
2021/06/26 11:27:39;;;;;;;0.20;0.20;;;24.00;99.90;;;;;;4896377;29;20255;-73
2021/06/26 11:30:09;;;;;;;0.20;0.20;;;24.30;99.90;;;;;;4889785;29;20349;-72
2021/06/26 11:32:37;;;;;;;0.20;0.20;;;24.30;99.90;;;;;;4889940;29;20212;-71
2021/06/26 11:35:09;;;;;;;0.20;0.20;;;24.50;99.90;;;;;;4891729;29;20200;-72
2021/06/26 11:37:39;;;;;;;0.20;0.20;;;24.80;99.90;;;;;;4889468;29;20284;-73
2021/06/26 11:40:20;;;;;;;0.20;0.20;;;24.90;99.80;;;;;;4889794;29;20207;-75
2021/06/26 11:42:54;;;;;;;0.20;0.20;;;24.90;98.90;;;;;;4895743;29;20207;-76
2021/06/26 11:45:24;;;;;;;0.20;0.20;;;24.70;98.40;;;;;;4890640;29;20199;-76
2021/06/26 11:48:05;;;;;;;0.20;0.20;;;24.50;99.00;;;;;;4896750;29;20218;-76
2021/06/26 11:50:34;;;;;;;0.20;0.20;;;24.20;99.60;;;;;;4898968;29;20223;-77
2021/06/26 11:53:04;;;;;;;0.20;0.20;;;23.90;99.10;;;;;;4900276;29;20267;-76
2021/06/26 11:55:49;;;;;;;0.20;0.20;;;23.70;99.90;;;;;;4898472;29;20203;-75
2021/06/26 11:58:18;;;;;;;0.20;0.20;;;23.60;99.90;;;;;;4886572;29;20235;-77
2021/06/26 12:00:49;;;;;;;0.20;0.20;;;23.50;99.90;;;;;;4899558;29;20253;-74
2021/06/26 12:03:17;;;;;;;0.20;0.20;;;23.50;99.90;;;;;;4913471;29;20206;-77
2021/06/26 12:05:46;;;;;;;0.20;0.20;;;23.50;99.90;;;;;;4918531;29;20235;-77
2021/06/26 12:08:17;;;;;;;0.20;0.20;;;23.30;99.90;;;;;;4897155;29;20264;-77
2021/06/26 12:10:50;;;;;;;0.20;0.20;;;23.20;99.90;;;;;;4910461;29;20227;-76
2021/06/26 12:13:20;;;;;;;0.20;0.20;;;;;;;;;;4918242;29;20246;-76
2021/06/26 12:15:48;;;;;;;0.30;0.30;;;23.20;99.90;;;;;;4890979;29;20215;-77
2021/06/26 12:18:17;;;;;;;0.28;0.28;;;23.10;99.90;;;;;;4888214;29;20215;-76
2021/06/26 12:20:45;;;;;;;0.30;0.30;;;23.20;99.90;;;;;;4896872;29;20227;-76
2021/06/26 12:23:14;;;;;;;0.28;0.28;;;23.50;99.90;;;;;;4894271;29;20264;-75
2021/06/26 12:25:44;;;;;;;0.20;0.20;;;23.80;99.90;;;;;;4890320;29;20256;-77
2021/06/26 12:28:13;;;;;;;0.20;0.20;;;24.50;99.90;;;;;;4881011;29;20200;-76
2021/06/26 12:30:43;;;;;;;0.20;0.20;;;25.30;99.90;;;;;;4885000;29;20240;-77
2021/06/26 12:33:14;;;;;;;0.20;0.20;;;26.20;98.70;;;;;;4904426;29;20208;-76
2021/06/26 12:35:42;;;;;;;0.20;0.20;;;26.80;97.00;;;;;;4894163;29;20813;-76
2021/06/26 12:38:10;;;;;;;0.20;0.20;;;28.40;97.40;;;;;;4892014;29;20218;-76
2021/06/26 12:40:41;;;;;;;0.20;0.20;;;29.10;99.90;;;;;;4889333;29;20713;-78
2021/06/26 12:43:11;;;;;;;0.20;0.20;;;30.00;88.80;;;;;;4893322;29;20200;-77
2021/06/26 12:45:45;;;;;;;0.10;0.10;;;31.00;76.70;;;;;;4894102;29;20218;-77
2021/06/26 12:48:16;;;;;;;0.20;0.20;;;31.00;77.30;;;;;;4899161;29;20720;-79
2021/06/26 12:51:00;;;;;;;0.10;0.10;;;32.70;85.30;;;;;;4887899;29;20232;-77
2021/06/26 12:53:38;;;;;;;0.10;0.10;;;32.90;65.10;;;;;;4880722;29;20665;-77
2021/06/26 12:56:13;;;;;;;0.10;0.10;;;33.10;64.90;;;;;;4893727;29;20233;-77
2021/06/26 12:58:52;;;;;;;0.10;0.10;;;33.60;62.00;;;;;;4884763;29;20215;-75
2021/06/26 13:01:23;;;;;;;0.10;0.10;;;34.30;59.30;;;;;;4897819;29;20218;-77
2021/06/26 13:03:55;;;;;;;0.10;0.10;;;34.20;57.10;;;;;;4895483;29;20202;-77
2021/06/26 13:06:23;;;;;;;0.10;0.10;;;34.50;56.30;;;;;;4883699;29;20207;-76
2021/06/26 13:08:53;;;;;;;0.10;0.10;;;34.80;55.10;;;;;;4879945;29;20207;-76
2021/06/26 13:11:31;;;;;;;0.10;0.10;;;35.00;53.40;;;;;;4898064;29;20231;-76
2021/06/26 13:14:03;;;;;;;0.10;0.10;;;35.10;53.70;;;;;;4898451;29;20349;-76
2021/06/26 13:16:33;;;;;;;0.10;0.10;;;35.10;54.30;;;;;;4898243;29;20226;-74
2021/06/26 13:19:01;;;;;;;0.10;0.10;;;35.50;53.30;;;;;;4898120;29;20203;-78
2021/06/26 13:21:29;;;;;;;0.10;0.10;;;35.80;52.70;;;;;;4902694;29;20309;-76
2021/06/26 13:23:57;;;;;;;0.10;0.10;;;35.70;50.60;;;;;;4899953;29;20210;-77
2021/06/26 13:26:26;;;;;;;0.10;0.10;;;35.80;50.60;;;;;;4899046;29;20202;-78
2021/06/26 13:28:55;;;;;;;0.10;0.10;;;35.60;50.10;;;;;;4899458;29;20206;-76
2021/06/26 13:31:34;;;;;;;0.10;0.10;;;35.10;51.10;;;;;;4901380;29;20239;-76
2021/06/26 13:34:03;;;;;;;0.10;0.10;;;34.50;51.80;;;;;;4894342;29;20230;-76
2021/06/26 13:36:31;;;;;;;0.10;0.10;;;33.70;52.80;;;;;;4895492;29;20613;-76
2021/06/26 13:38:59;;;;;;;0.10;0.10;;;33.60;53.90;;;;;;4898027;29;20214;-73
2021/06/26 13:41:27;;;;;;;0.10;0.10;;;;;;;;;;4896265;29;20286;-73
2021/06/26 13:43:55;;;;;;;0.10;0.10;;;33.80;54.40;;;;;;4896314;29;20853;-73
2021/06/26 13:46:23;;;;;;;0.10;0.10;;;33.60;54.00;;;;;;4897853;29;20207;-74
2021/06/26 13:48:53;;;;;;;0.10;0.10;;;32.90;55.20;;;;;;4896453;29;20245;-74
2021/06/26 13:51:22;;;;;;;0.10;0.10;;;32.40;56.50;;;;;;4896094;29;20230;-74
2021/06/26 13:53:50;;;;;;;0.10;0.10;;;31.90;58.50;;;;;;4896219;29;20625;-74
2021/06/26 13:56:21;;;;;;;0.10;0.10;;;31.50;58.30;;;;;;4912680;29;20221;-73
2021/06/26 13:58:49;;;;;;;0.10;0.10;;;31.10;58.10;;;;;;4899197;29;20207;-73
2021/06/26 14:01:17;;;;;;;0.10;0.10;;;30.40;59.00;;;;;;4897425;29;20282;-73
2021/06/26 14:03:45;;;;;;;0.10;0.10;;;30.00;68.40;;;;;;4897251;29;20619;-73
2021/06/26 14:06:15;;;;;;;0.10;0.10;;;29.50;63.40;;;;;;4897173;29;20640;-73
2021/06/26 14:08:43;;;;;;;0.10;0.10;;;29.40;73.60;;;;;;4896762;29;20262;-73
2021/06/26 14:11:11;;;;;;;0.10;0.10;;;29.00;63.00;;;;;;4897016;29;20234;-73
2021/06/26 14:13:39;;;;;;;0.10;0.10;;;28.60;63.80;;;;;;4897060;29;20681;-73
2021/06/26 14:16:08;;;;;;;0.10;0.10;;;28.30;64.10;;;;;;4897133;29;20211;-73
2021/06/26 14:18:38;;;;;;;0.20;0.20;;;;;;;;;;4897180;29;20294;-73
2021/06/26 14:21:07;;;;;;;0.10;0.10;;;27.40;66.60;;;;;;4896805;29;20291;-73
2021/06/26 14:23:37;;;;;;;0.10;0.10;;;27.40;76.20;;;;;;4896952;29;20685;-73
2021/06/26 14:26:05;;;;;;;0.10;0.10;;;27.30;69.30;;;;;;4896763;29;20207;-73
2021/06/26 14:28:33;;;;;;;0.20;0.20;;;27.20;69.40;;;;;;4896492;29;20768;-73
2021/06/26 14:31:01;;;;;;;0.10;0.10;;;27.30;69.00;;;;;;4903923;29;20740;-73
2021/06/26 14:33:29;;;;;;;0.20;0.20;;;27.30;67.90;;;;;;4915672;29;20203;-73
2021/06/26 14:35:57;;;;;;;0.20;0.20;;;27.40;68.50;;;;;;4915611;29;20207;-73
2021/06/26 14:38:25;;;;;;;0.10;0.10;;;27.50;70.10;;;;;;4915775;29;20668;-73
2021/06/26 14:40:54;;;;;;;0.20;0.20;;;27.50;70.40;;;;;;4915520;29;20227;-73
2021/06/26 14:43:22;;;;;;;0.20;0.20;;;27.30;87.20;;;;;;4878216;29;20268;-73
2021/06/26 14:45:51;;;;;;;0.20;0.20;;;27.30;86.20;;;;;;4877891;29;20712;-73
2021/06/26 14:48:19;;;;;;;0.10;0.10;;;27.20;69.70;;;;;;4878063;29;20232;-73
2021/06/26 14:50:46;;;;;;;0.10;0.10;;;27.10;71.10;;;;;;4885905;29;20227;-73
2021/06/26 14:53:15;;;;;;;0.10;0.10;;;26.90;69.50;;;;;;4896469;29;20215;-73
2021/06/26 14:55:42;;;;;;;0.10;0.10;;;26.60;70.80;;;;;;4896627;29;20242;-73
2021/06/26 14:58:12;;;;;;;0.20;0.20;;;;;;;;;;4896440;29;20267;-73
2021/06/26 15:00:40;;;;;;;0.20;0.20;;;26.40;71.80;;;;;;4896677;29;20655;-73
2021/06/26 15:03:07;;;;;;;0.20;0.20;;;26.40;72.80;;;;;;4896451;29;20207;-73
2021/06/26 15:05:35;;;;;;;0.20;0.20;;;26.40;71.50;;;;;;4896697;29;20215;-73
2021/06/26 15:08:03;;;;;;;0.20;0.20;;;26.60;72.10;;;;;;4896716;29;20258;-73
2021/06/26 15:10:31;;;;;;;0.10;0.10;;;26.70;70.00;;;;;;4896547;29;20231;-73
2021/06/26 15:13:00;;;;;;;0.10;0.10;;;26.70;71.50;;;;;;4896478;29;20299;-73
2021/06/26 15:15:29;;;;;;;0.10;0.10;;;26.70;76.80;;;;;;4896111;29;20302;-73
2021/06/26 15:17:58;;;;;;;0.13;0.13;;;26.70;78.70;;;;;;4896554;29;20215;-73
2021/06/26 15:20:26;;;;;;;0.20;0.20;;;27.00;94.90;;;;;;4896566;29;20211;-73
2021/06/26 15:22:54;;;;;;;0.10;0.10;;;26.70;77.60;;;;;;4896440;29;20235;-73
2021/06/26 15:25:22;;;;;;;0.20;0.20;;;26.70;76.90;;;;;;4895986;29;20271;-73
2021/06/26 15:27:50;;;;;;;0.10;0.10;;;26.50;75.40;;;;;;4896511;29;20227;-73
2021/06/26 15:30:18;;;;;;;0.10;0.10;;;26.50;94.90;;;;;;4896168;29;20211;-73
2021/06/26 15:32:51;;;;;;;0.20;0.20;;;26.50;76.90;;;;;;4896675;29;20219;-73
2021/06/26 15:35:20;;;;;;;0.10;0.10;;;26.40;78.90;;;;;;4896567;29;20303;-73
2021/06/26 15:37:48;;;;;;;0.10;0.10;;;26.50;80.80;;;;;;4896096;29;20211;-73
2021/06/26 15:40:16;;;;;;;0.10;0.10;;;26.50;97.30;;;;;;4896208;29;20231;-73
2021/06/26 15:42:44;;;;;;;0.10;0.10;;;26.50;82.30;;;;;;4897083;29;20246;-73
2021/06/26 15:45:13;;;;;;;0.10;0.10;;;26.40;81.60;;;;;;4899511;29;20207;-73
2021/06/26 15:47:41;;;;;;;0.20;0.20;;;26.50;83.20;;;;;;4903646;29;20214;-75
2021/06/26 15:50:13;;;;;;;0.10;0.10;;;26.40;98.30;;;;;;4886789;29;20765;-75
2021/06/26 15:52:43;;;;;;;0.20;0.20;;;26.40;83.90;;;;;;4881907;29;20276;-74
2021/06/26 15:55:12;;;;;;;0.20;0.20;;;26.20;83.50;;;;;;4892404;29;20208;-75
2021/06/26 15:57:40;;;;;;;0.20;0.20;;;26.40;84.20;;;;;;4899078;29;20554;-74
2021/06/26 16:00:09;;;;;;;0.10;0.10;;;27.00;85.80;;;;;;4892986;29;20227;-76
2021/06/26 16:02:37;;;;;;;0.10;0.10;;;26.50;83.00;;;;;;4891073;29;20231;-76
2021/06/26 16:05:07;;;;;;;0.10;0.10;;;26.50;82.70;;;;;;4889586;29;20204;-76
2021/06/26 16:07:37;;;;;;;0.20;0.20;;;26.60;81.20;;;;;;4888927;29;20661;-76
2021/06/26 16:10:06;;;;;;;0.20;0.20;;;26.70;81.70;;;;;;4892463;29;20251;-77
2021/06/26 16:12:34;;;;;;;0.10;0.10;;;26.90;80.50;;;;;;4891189;29;20200;-77
2021/06/26 16:15:03;;;;;;;0.20;0.20;;;27.40;81.20;;;;;;4889710;29;20200;-76
2021/06/26 16:17:31;;;;;;;0.10;0.10;;;25.80;78.40;;;;;;4901140;29;20266;-77
2021/06/26 16:19:59;;;;;;;0.17;0.17;;;28.40;77.10;;;;;;4889687;29;20275;-76
2021/06/26 16:22:27;;;;;;;0.10;0.10;;;;;;;;;;4896947;29;20283;-76
2021/06/26 16:24:59;;;;;;;0.10;0.10;;;;;;;;;;4899680;29;20235;-78
2021/06/26 16:27:30;;;;;;;0.10;0.10;;;29.40;99.90;;;;;;4900627;29;20709;-77
2021/06/26 16:30:19;;;;;;;0.10;0.10;;;30.00;91.60;;;;;;4898415;29;20233;-76
2021/06/26 16:32:47;;;;;;;0.10;0.10;;;30.10;71.90;;;;;;4907426;29;20276;-76
2021/06/26 16:35:15;;;;;;;0.10;0.10;;;30.00;71.70;;;;;;4893469;29;20254;-76
2021/06/26 16:37:53;;;;;;;0.10;0.10;;;29.70;72.40;;;;;;4896613;29;20255;-76
2021/06/26 16:40:22;;;;;;;0.10;0.10;;;28.50;87.50;;;;;;4895388;29;20196;-76
2021/06/26 16:42:50;;;;;;;0.10;0.10;;;;;;;;;;4894466;29;20211;-75
2021/06/26 16:45:18;;;;;;;0.10;0.10;;;;;;;;;;4895348;29;20207;-76
2021/06/26 16:47:47;;;;;;;0.10;0.10;;;;;;;;;;4896448;29;20211;-76
2021/06/26 16:50:15;;;;;;;0.10;0.10;;;28.40;90.80;;;;;;4896390;29;20219;-76
2021/06/26 16:52:42;;;;;;;0.10;0.10;;;28.50;76.10;;;;;;4895606;29;20264;-76
2021/06/26 16:55:12;;;;;;;0.10;0.10;;;28.50;74.10;;;;;;4893684;29;20212;-76
2021/06/26 16:57:41;;;;;;;0.10;0.10;;;28.20;76.20;;;;;;4891630;29;20204;-75
2021/06/26 17:00:10;;;;;;;0.10;0.10;;;28.20;87.30;;;;;;4900589;29;20196;-75
2021/06/26 17:02:38;;;;;;;0.20;0.20;;;;;;;;;;4898323;29;20338;-75
2021/06/26 17:05:07;;;;;;;0.10;0.10;;;28.30;73.30;;;;;;4895818;29;20211;-76
2021/06/26 17:07:35;;;;;;;0.10;0.10;;;;;;;;;;4892809;29;20207;-76
2021/06/26 17:10:04;;;;;;;0.10;0.10;;;28.60;73.70;;;;;;4893660;29;20212;-77
2021/06/26 17:12:32;;;;;;;0.20;0.20;;;28.70;74.40;;;;;;4894946;29;20298;-76
2021/06/26 17:15:02;;;;;;;0.20;0.20;;;28.70;73.40;;;;;;4895711;29;20204;-76
2021/06/26 17:17:29;;;;;;;0.20;0.20;;;29.20;73.60;;;;;;4893679;29;20216;-75
2021/06/26 17:19:58;;;;;;;0.10;0.10;;;;;;;;;;4898939;29;20251;-75
2021/06/26 17:22:25;;;;;;;0.10;0.10;;;30.10;70.90;;;;;;4892944;29;20223;-76
2021/06/26 17:24:53;;;;;;;0.10;0.10;;;30.40;69.90;;;;;;4886432;29;20236;-76
2021/06/26 17:27:22;;;;;;;0.10;0.10;;;;;;;;;;4896498;29;20270;-75
2021/06/26 17:29:50;;;;;;;0.10;0.10;;;;;;;;;;4896597;29;20350;-76
2021/06/26 17:32:19;;;;;;;0.20;0.20;;;29.80;70.40;;;;;;4883568;29;20227;-76
2021/06/26 17:34:47;;;;;;;0.20;0.20;;;29.80;70.90;;;;;;4887923;29;20674;-77
2021/06/26 17:37:15;;;;;;;0.10;0.10;;;29.70;71.30;;;;;;4886630;29;20224;-77
2021/06/26 17:39:43;;;;;;;0.20;0.20;;;29.70;71.70;;;;;;4897447;29;20207;-76
2021/06/26 17:42:12;;;;;;;0.20;0.20;;;29.90;70.80;;;;;;4897504;29;20291;-76
2021/06/26 17:44:40;;;;;;;0.10;0.10;;;30.10;70.20;;;;;;4888402;29;20270;-76
2021/06/26 17:47:10;;;;;;;0.10;0.10;;;30.30;70.60;;;;;;4888129;29;20200;-76
2021/06/26 17:49:39;;;;;;;0.10;0.10;;;30.30;68.70;;;;;;4888059;29;20278;-76
2021/06/26 17:52:08;;;;;;;0.10;0.10;;;30.00;69.60;;;;;;4887974;29;20284;-76
2021/06/26 17:54:37;;;;;;;0.10;0.10;;;29.80;70.80;;;;;;4885936;29;20674;-76
2021/06/26 17:57:05;;;;;;;0.20;0.20;;;29.30;70.00;;;;;;4883833;29;20256;-76
2021/06/26 17:59:33;;;;;;;0.30;0.30;;;29.30;72.00;;;;;;4895886;29;20647;-76
2021/06/26 18:02:01;;;;;;;0.20;0.20;;;29.60;71.50;;;;;;4897159;29;20231;-76
2021/06/26 18:04:29;;;;;;;0.17;0.17;;;29.60;70.30;;;;;;4896601;29;20807;-76
2021/06/26 18:07:02;;;;;;;0.10;0.10;;;29.50;71.40;;;;;;4899463;29;20246;-77
2021/06/26 18:09:50;;;;;;;0.20;0.20;;;29.30;72.80;;;;;;4893319;29;20749;-76
2021/06/26 18:12:18;;;;;;;0.30;0.30;;;29.00;74.30;;;;;;4896376;29;20283;-77
2021/06/26 18:14:46;;;;;;;0.40;0.40;;;29.10;71.60;;;;;;4890799;29;20208;-77
2021/06/26 18:17:14;;;;;;;0.30;0.30;;;29.40;72.30;;;;;;4893531;29;20275;-77
2021/06/26 18:19:42;;;;;;;0.20;0.20;;;29.50;71.60;;;;;;4896697;29;20677;-77